Time;durP1;ratioP1;P1;durP2;ratioP2;P2;SDS_P1;SDS_P2;PMS_P1;PMS_P2;Temp;Humidity;BMP_temperature;BMP_pressure;BME280_temperature;BME280_humidity;BME280_pressure;Samples;Min_cycle;Max_cycle;Signal;HPM_P1;HPM_P2
2024/03/14 00:00:38;;;;;;;3.08;1.92;;;;;;;;;;10233807;28;20098;-78
2024/03/14 00:05:41;;;;;;;2.55;1.67;;;;;;;;;;10237574;28;20229;-77
2024/03/14 00:10:47;;;;;;;2.47;1.60;;;;;;;;;;10223873;28;20050;-80
2024/03/14 00:15:53;;;;;;;3.15;1.75;;;;;;;;;;10236714;28;20047;-79
2024/03/14 00:20:57;;;;;;;8.45;1.98;;;;;;;;;;10235328;28;20134;-78
2024/03/14 00:26:00;;;;;;;2.30;1.20;;;;;;;;;;10231375;28;20400;-78
2024/03/14 00:31:04;;;;;;;1.23;0.65;;;;;;;;;;10235668;28;20050;-76
2024/03/14 00:36:07;;;;;;;4.57;2.10;;;;;;;;;;10233013;28;20055;-78
2024/03/14 00:41:14;;;;;;;4.93;2.00;;;;;;;;;;10213811;28;20141;-76
2024/03/14 00:46:18;;;;;;;0.50;0.50;;;;;;;;;;10238190;28;20061;-79
2024/03/14 00:51:21;;;;;;;5.68;2.00;;;;;;;;;;10236603;28;20077;-79
2024/03/14 00:56:26;;;;;;;2.13;1.38;;;;;;;;;;10233776;28;20530;-77
2024/03/14 01:01:31;;;;;;;4.75;2.30;;;;;;;;;;10232955;28;20052;-76
2024/03/14 01:06:33;;;;;;;3.90;2.03;;;;;;;;;;10229259;28;20039;-76
2024/03/14 01:11:39;;;;;;;5.30;2.08;;;;;;;;;;10233182;28;20634;-77
2024/03/14 01:16:42;;;;;;;3.95;1.70;;;;;;;;;;10211518;28;20043;-77
2024/03/14 01:21:45;;;;;;;3.87;2.00;;;;;;;;;;10230017;28;20082;-77
2024/03/14 01:26:48;;;;;;;1.55;0.93;;;;;;;;;;10229847;28;20502;-76
2024/03/14 01:31:52;;;;;;;3.63;2.08;;;;;;;;;;10238465;28;20054;-76
2024/03/14 01:36:58;;;;;;;3.97;1.70;;;;;;;;;;10230132;28;20071;-75
2024/03/14 01:42:02;;;;;;;3.85;1.67;;;;;;;;;;10221091;28;20055;-76
2024/03/14 01:47:06;;;;;;;3.20;1.65;;;;;;;;;;10251453;28;20039;-75
2024/03/14 01:52:09;;;;;;;4.45;1.63;;;;;;;;;;10235517;28;20038;-77
2024/03/14 01:57:12;;;;;;;3.00;1.37;;;;;;;;;;10228190;28;20050;-77
2024/03/14 02:02:15;;;;;;;2.83;1.60;;;;;;;;;;10235297;28;20039;-77
2024/03/14 02:07:18;;;;;;;1.85;1.00;;;;;;;;;;10231511;28;20591;-76
2024/03/14 02:12:23;;;;;;;1.45;1.13;;;;;;;;;;10234570;28;20093;-77
2024/03/14 02:17:26;;;;;;;5.07;2.22;;;;;;;;;;10233536;28;20035;-76
2024/03/14 02:22:32;;;;;;;4.15;1.90;;;;;;;;;;10236526;28;20058;-78
2024/03/14 02:27:36;;;;;;;3.22;1.73;;;;;;;;;;10235718;28;20049;-78
2024/03/14 02:32:43;;;;;;;2.78;1.45;;;;;;;;;;10232215;28;20057;-78
2024/03/14 02:37:46;;;;;;;3.45;1.77;;;;;;;;;;10236940;28;20047;-77
2024/03/14 02:42:49;;;;;;;2.63;1.67;;;;;;;;;;10235715;28;20043;-78
2024/03/14 02:47:52;;;;;;;2.88;1.40;;;;;;;;;;10238252;28;20042;-77
2024/03/14 02:52:57;;;;;;;3.25;1.40;;;;;;;;;;10241842;28;20392;-78
2024/03/14 02:58:01;;;;;;;4.68;1.50;;;;;;;;;;10235381;28;20066;-78
2024/03/14 03:03:06;;;;;;;2.08;0.82;;;;;;;;;;10242532;28;20507;-79
2024/03/14 03:08:09;;;;;;;3.95;1.38;;;;;;;;;;10219399;28;20496;-77
2024/03/14 03:13:14;;;;;;;3.03;1.60;;;;;;;;;;10235746;28;20130;-78
2024/03/14 03:18:17;;;;;;;4.72;1.58;;;;;;;;;;10221327;28;20432;-77
2024/03/14 03:23:21;;;;;;;2.53;1.40;;;;;;;;;;10248935;28;20050;-77
2024/03/14 03:28:26;;;;;;;2.42;1.35;;;;;;;;;;10233068;28;20049;-74
2024/03/14 03:33:31;;;;;;;3.55;1.63;;;;;;;;;;10227376;28;20111;-76
2024/03/14 03:38:36;;;;;;;2.83;1.63;;;;;;;;;;10238011;28;20050;-75
2024/03/14 03:43:40;;;;;;;3.22;1.00;;;;;;;;;;10237766;28;20063;-74
2024/03/14 03:48:43;;;;;;;2.53;1.40;;;;;;;;;;10246486;28;20062;-77
2024/03/14 03:53:47;;;;;;;4.20;1.40;;;;;;;;;;10241931;28;20561;-78
2024/03/14 03:58:50;;;;;;;2.25;1.40;;;;;;;;;;10239875;28;20078;-79
2024/03/14 04:03:53;;;;;;;2.65;1.48;;;;;;;;;;10238876;28;20087;-76
2024/03/14 04:08:56;;;;;;;1.80;1.20;;;;;;;;;;10233617;28;20352;-77
2024/03/14 04:13:59;;;;;;;4.13;1.90;;;;;;;;;;10233264;28;20408;-76
2024/03/14 04:19:02;;;;;;;2.22;1.33;;;;;;;;;;10231246;28;20055;-76
2024/03/14 04:24:06;;;;;;;2.25;1.25;;;;;;;;;;10253967;28;20105;-76
2024/03/14 04:29:11;;;;;;;2.88;1.35;;;;;;;;;;10229996;28;20042;-75
2024/03/14 04:34:14;;;;;;;3.15;1.70;;;;;;;;;;10237126;28;20377;-76
2024/03/14 04:39:19;;;;;;;2.50;1.57;;;;;;;;;;10231532;28;20463;-76
2024/03/14 04:44:22;;;;;;;3.47;1.95;;;;;;;;;;10230582;28;20047;-76
2024/03/14 04:49:25;;;;;;;3.20;1.30;;;;;;;;;;10219733;28;20485;-77
2024/03/14 04:54:28;;;;;;;2.30;0.90;;;;;;;;;;10229492;28;20552;-74
2024/03/14 04:59:31;;;;;;;1.63;1.00;;;;;;;;;;10227466;28;20122;-74
2024/03/14 05:04:34;;;;;;;2.70;1.08;;;;;;;;;;10234752;28;20265;-75
2024/03/14 05:09:38;;;;;;;3.65;1.65;;;;;;;;;;10230981;28;20091;-75
2024/03/14 05:14:42;;;;;;;2.08;1.25;;;;;;;;;;10236541;28;20211;-75
2024/03/14 05:19:46;;;;;;;3.58;1.40;;;;;;;;;;10216179;28;20091;-74
2024/03/14 05:24:48;;;;;;;3.10;1.70;;;;;;;;;;10220166;28;20491;-74
2024/03/14 05:29:51;;;;;;;3.55;1.50;;;;;;;;;;10220271;28;20338;-74
2024/03/14 05:34:57;;;;;;;2.47;1.30;;;;;;;;;;10230891;28;20051;-75
2024/03/14 05:40:05;;;;;;;0.65;0.60;;;;;;;;;;10227151;28;20046;-74
2024/03/14 05:45:08;;;;;;;1.73;1.02;;;;;;;;;;10229619;28;20038;-75
2024/03/14 05:50:21;;;;;;;1.85;1.20;;;;;;;;;;10239974;28;20046;-77
2024/03/14 05:55:25;;;;;;;1.75;0.90;;;;;;;;;;10239750;28;20046;-75
2024/03/14 06:00:32;;;;;;;3.95;1.15;;;;;;;;;;10236839;28;20428;-77
2024/03/14 06:05:37;;;;;;;1.05;0.85;;;;;;;;;;10238913;28;20050;-76
2024/03/14 06:10:40;;;;;;;2.17;0.85;;;;;;;;;;10215636;28;20241;-74
2024/03/14 06:15:43;;;;;;;2.30;1.20;;;;;;;;;;10229648;28;20473;-76
2024/03/14 06:20:48;;;;;;;2.85;1.50;;;;;;;;;;10233582;28;20054;-75
2024/03/14 06:25:52;;;;;;;1.98;1.23;;;;;;;;;;10235068;28;20045;-77
2024/03/14 06:30:59;;;;;;;2.40;1.73;;;;;;;;;;10233123;28;20189;-76
2024/03/14 06:36:02;;;;;;;2.63;1.42;;;;;;;;;;10219980;28;20046;-76
2024/03/14 06:41:05;;;;;;;2.33;1.10;;;;;;;;;;10212625;28;20047;-76
2024/03/14 06:46:16;;;;;;;2.85;1.52;;;;;;;;;;10232844;28;20552;-76
2024/03/14 06:51:19;;;;;;;3.05;1.52;;;;;;;;;;10234115;28;20145;-76
2024/03/14 06:56:23;;;;;;;2.75;1.17;;;;;;;;;;10235381;28;20115;-76
2024/03/14 07:01:26;;;;;;;2.85;1.55;;;;;;;;;;10233182;28;20139;-77
2024/03/14 07:06:32;;;;;;;1.80;1.17;;;;;;;;;;10235797;28;20046;-77
2024/03/14 07:11:36;;;;;;;2.97;1.60;;;;;;;;;;10232012;28;20050;-75
2024/03/14 07:16:40;;;;;;;3.08;1.77;;;;;;;;;;10218997;28;20040;-76
2024/03/14 07:21:44;;;;;;;2.60;1.77;;;;;;;;;;10238321;28;20047;-77
2024/03/14 07:26:47;;;;;;;2.00;1.52;;;;;;;;;;10237814;28;20042;-78
2024/03/14 07:31:51;;;;;;;2.00;1.50;;;;;;;;;;10237768;28;20067;-78
2024/03/14 07:36:58;;;;;;;3.47;1.70;;;;;;;;;;10236960;28;20587;-77
2024/03/14 07:42:17;;;;;;;3.47;1.83;;;;;;;;;;10231768;28;20055;-76
2024/03/14 07:47:23;;;;;;;3.13;2.00;;;;;;;;;;10234095;28;20043;-77
2024/03/14 07:52:29;;;;;;;2.97;1.92;;;;;;;;;;10242595;28;20051;-76
2024/03/14 07:57:35;;;;;;;3.75;2.33;;;;;;;;;;10239823;28;20480;-77
2024/03/14 08:02:54;;;;;;;8.07;3.53;;;;;;;;;;10229872;28;20061;-75
2024/03/14 08:08:01;;;;;;;10.40;3.60;;;;;;;;;;10250639;28;20082;-76
2024/03/14 08:13:21;;;;;;;5.32;3.00;;;;;;;;;;10239771;28;20047;-77
2024/03/14 08:18:30;;;;;;;7.57;3.47;;;;;;;;;;10221819;28;20042;-75
2024/03/14 08:23:35;;;;;;;8.98;3.50;;;;;;;;;;10237434;28;20126;-77
2024/03/14 08:28:38;;;;;;;;;;;;;;;;;;10230490;28;20054;-77
2024/03/14 08:33:44;;;;;;;6.65;3.78;;;;;;;;;;10252154;28;20473;-77
2024/03/14 08:38:48;;;;;;;3.90;2.60;;;;;;;;;;10234874;28;20047;-77
2024/03/14 08:43:54;;;;;;;5.18;2.40;;;;;;;;;;10232924;28;20054;-76
2024/03/14 08:48:57;;;;;;;3.63;1.90;;;;;;;;;;10237505;28;20054;-77
2024/03/14 08:54:09;;;;;;;;;;;;;;;;;;10218625;28;20675;-77
2024/03/14 08:59:13;;;;;;;3.33;1.90;;;;;;;;;;10233300;28;19933;-76
2024/03/14 09:04:16;;;;;;;5.05;2.03;;;;;;;;;;10238401;28;20281;-76
2024/03/14 09:09:27;;;;;;;2.53;1.40;;;;;;;;;;10221484;28;20045;-76
2024/03/14 09:14:32;;;;;;;3.03;1.40;;;;;;;;;;10235085;28;20130;-76
2024/03/14 09:19:37;;;;;;;2.45;1.40;;;;;;;;;;10231497;28;20389;-76
2024/03/14 09:24:41;;;;;;;2.20;1.45;;;;;;;;;;10219121;28;20128;-76
2024/03/14 09:29:45;;;;;;;3.42;1.65;;;;;;;;;;10228645;28;20047;-77
2024/03/14 09:34:49;;;;;;;3.58;1.90;;;;;;;;;;10238464;28;20047;-77
2024/03/14 09:39:52;;;;;;;3.85;1.80;;;;;;;;;;10239381;28;20043;-76
2024/03/14 09:44:54;;;;;;;;;;;;;;;;;;10228511;28;20671;-76
2024/03/14 09:49:57;;;;;;;;;;;;;;;;;;10241609;28;19922;-78
2024/03/14 09:55:00;;;;;;;2.13;1.40;;;;;;;;;;10253452;28;19922;-78
2024/03/14 10:00:07;;;;;;;1.30;1.20;;;;;;;;;;10222122;28;20058;-77
2024/03/14 10:05:11;;;;;;;2.45;1.30;;;;;;;;;;10238778;28;20521;-78
2024/03/14 10:10:15;;;;;;;3.15;1.42;;;;;;;;;;10239873;28;20042;-76
2024/03/14 10:15:20;;;;;;;1.27;1.23;;;;;;;;;;10234937;28;20101;-76
2024/03/14 10:20:24;;;;;;;1.50;1.30;;;;;;;;;;10238280;28;20039;-77
2024/03/14 10:25:28;;;;;;;9.60;1.90;;;;;;;;;;10238169;28;20133;-77
2024/03/14 10:30:33;;;;;;;1.38;1.30;;;;;;;;;;10235682;28;20047;-77
2024/03/14 10:35:36;;;;;;;1.77;1.30;;;;;;;;;;10239248;28;20070;-80
2024/03/14 10:40:39;;;;;;;2.50;1.60;;;;;;;;;;10220575;28;20453;-78
2024/03/14 10:45:43;;;;;;;1.88;1.10;;;;;;;;;;10232156;28;20051;-77
2024/03/14 10:50:47;;;;;;;2.65;1.50;;;;;;;;;;10226815;28;20046;-77
2024/03/14 10:55:50;;;;;;;2.13;1.48;;;;;;;;;;10219987;28;20050;-78
2024/03/14 11:00:53;;;;;;;1.90;1.70;;;;;;;;;;10240065;28;20046;-78
2024/03/14 11:05:56;;;;;;;2.03;1.30;;;;;;;;;;10237822;28;20051;-77
2024/03/14 11:11:04;;;;;;;3.67;1.33;;;;;;;;;;10230005;28;20051;-78
2024/03/14 11:16:07;;;;;;;2.92;1.90;;;;;;;;;;10237214;28;20043;-78
2024/03/14 11:21:12;;;;;;;2.53;1.48;;;;;;;;;;10232478;28;20077;-78
2024/03/14 11:26:15;;;;;;;1.95;1.70;;;;;;;;;;10216459;28;20123;-78
2024/03/14 11:31:20;;;;;;;3.67;1.40;;;;;;;;;;10233477;28;20055;-77
2024/03/14 11:36:24;;;;;;;1.48;1.20;;;;;;;;;;10233188;28;20062;-78
2024/03/14 11:41:28;;;;;;;2.80;1.02;;;;;;;;;;10223363;28;20051;-78
2024/03/14 11:46:32;;;;;;;4.90;1.10;;;;;;;;;;10232442;28;20058;-78
2024/03/14 11:51:39;;;;;;;3.63;1.42;;;;;;;;;;10225357;28;20533;-78
2024/03/14 11:56:43;;;;;;;2.55;1.42;;;;;;;;;;10240033;28;20057;-78
2024/03/14 12:01:50;;;;;;;2.17;1.65;;;;;;;;;;10234964;28;20404;-78
2024/03/14 12:06:55;;;;;;;1.80;1.17;;;;;;;;;;10232040;28;20061;-78
2024/03/14 12:11:59;;;;;;;1.52;1.42;;;;;;;;;;10232315;28;20123;-77
2024/03/14 12:17:03;;;;;;;1.70;1.10;;;;;;;;;;10232221;28;20039;-78
2024/03/14 12:22:06;;;;;;;1.05;0.98;;;;;;;;;;10236074;28;20039;-79
2024/03/14 12:27:11;;;;;;;3.42;1.13;;;;;;;;;;10226075;28;20039;-77
2024/03/14 12:32:16;;;;;;;1.30;1.20;;;;;;;;;;10217693;28;20043;-78
2024/03/14 12:37:22;;;;;;;1.45;1.08;;;;;;;;;;10230184;28;20067;-78
2024/03/14 12:42:25;;;;;;;2.35;1.23;;;;;;;;;;10232438;28;20524;-77
2024/03/14 12:47:29;;;;;;;1.52;1.30;;;;;;;;;;10218021;28;20049;-76
2024/03/14 12:52:32;;;;;;;5.35;2.15;;;;;;;;;;10216523;28;20047;-78
2024/03/14 12:57:38;;;;;;;2.45;1.15;;;;;;;;;;10226563;28;20038;-77
2024/03/14 13:02:43;;;;;;;4.40;1.77;;;;;;;;;;10230937;28;20134;-77
2024/03/14 13:08:02;;;;;;;7.22;1.40;;;;;;;;;;10226283;28;20040;-77
2024/03/14 13:13:07;;;;;;;2.28;1.15;;;;;;;;;;10247224;28;20061;-77
2024/03/14 13:18:13;;;;;;;2.65;1.35;;;;;;;;;;10231770;28;20604;-77
2024/03/14 13:23:17;;;;;;;2.13;1.30;;;;;;;;;;10228845;28;20050;-78
2024/03/14 13:28:21;;;;;;;2.35;1.27;;;;;;;;;;10234299;28;20039;-77
2024/03/14 13:33:24;;;;;;;1.77;1.15;;;;;;;;;;10226851;28;20418;-76
2024/03/14 13:38:30;;;;;;;1.00;1.00;;;;;;;;;;10228636;28;20127;-77
2024/03/14 13:43:37;;;;;;;1.52;1.20;;;;;;;;;;10229747;28;20130;-77
2024/03/14 13:48:42;;;;;;;2.30;1.23;;;;;;;;;;10219082;28;20038;-78
2024/03/14 13:53:47;;;;;;;1.55;1.00;;;;;;;;;;10234697;28;20046;-77
2024/03/14 13:58:52;;;;;;;1.20;1.02;;;;;;;;;;10234265;28;20023;-77
2024/03/14 14:03:57;;;;;;;1.35;0.80;;;;;;;;;;10236603;28;20499;-79
2024/03/14 14:09:06;;;;;;;2.83;1.10;;;;;;;;;;10242781;28;20058;-76
2024/03/14 14:14:13;;;;;;;3.38;0.80;;;;;;;;;;10243372;28;20067;-77
2024/03/14 14:19:17;;;;;;;1.92;1.00;;;;;;;;;;10238363;28;20522;-79
2024/03/14 14:24:20;;;;;;;2.03;0.82;;;;;;;;;;10229099;28;20047;-78
2024/03/14 14:29:25;;;;;;;0.95;0.85;;;;;;;;;;10236657;28;20063;-77
2024/03/14 14:34:28;;;;;;;2.72;1.40;;;;;;;;;;10231320;28;20510;-77
2024/03/14 14:39:33;;;;;;;2.03;1.23;;;;;;;;;;10236468;28;20050;-77
2024/03/14 14:44:39;;;;;;;1.38;1.10;;;;;;;;;;10233384;28;21707;-77
2024/03/14 14:49:43;;;;;;;2.85;1.30;;;;;;;;;;10237663;28;20039;-77
2024/03/14 14:54:46;;;;;;;1.95;0.82;;;;;;;;;;10228463;28;20071;-77
2024/03/14 14:59:52;;;;;;;1.80;1.10;;;;;;;;;;10233225;28;20051;-77
2024/03/14 15:04:55;;;;;;;1.20;0.85;;;;;;;;;;10235511;28;20142;-77
2024/03/14 15:09:58;;;;;;;;;;;;;;;;;;10233331;28;20043;-77
2024/03/14 15:15:02;;;;;;;1.25;0.80;;;;;;;;;;10230168;28;20477;-78
2024/03/14 15:20:08;;;;;;;1.40;1.10;;;;;;;;;;10233107;28;20075;-76
2024/03/14 15:25:13;;;;;;;1.45;0.90;;;;;;;;;;10230282;28;20065;-77
2024/03/14 15:30:20;;;;;;;2.30;1.15;;;;;;;;;;10231059;28;20129;-77
2024/03/14 15:35:25;;;;;;;1.35;1.10;;;;;;;;;;10231528;28;20628;-76
2024/03/14 15:40:28;;;;;;;2.30;1.10;;;;;;;;;;10235384;28;20141;-77
2024/03/14 15:45:35;;;;;;;3.90;1.00;;;;;;;;;;10221951;28;20052;-77
2024/03/14 15:50:38;;;;;;;1.90;1.00;;;;;;;;;;10237016;28;20069;-77
2024/03/14 15:55:44;;;;;;;2.72;1.20;;;;;;;;;;10223644;28;20046;-76
2024/03/14 16:00:49;;;;;;;3.15;1.00;;;;;;;;;;10239170;28;20050;-77
2024/03/14 16:05:54;;;;;;;1.70;1.23;;;;;;;;;;10234917;28;20043;-76
2024/03/14 16:10:58;;;;;;;2.92;1.20;;;;;;;;;;10248572;28;20035;-77
2024/03/14 16:16:03;;;;;;;1.88;1.30;;;;;;;;;;10229424;28;20050;-76
2024/03/14 16:21:11;;;;;;;1.30;0.98;;;;;;;;;;10238196;28;20050;-76
2024/03/14 16:26:14;;;;;;;2.58;1.00;;;;;;;;;;10233812;28;20041;-77
2024/03/14 16:31:22;;;;;;;2.38;1.20;;;;;;;;;;10228915;28;20059;-78
2024/03/14 16:36:26;;;;;;;1.80;1.20;;;;;;;;;;10240255;28;20478;-79
2024/03/14 16:41:31;;;;;;;5.18;1.33;;;;;;;;;;10226115;28;20054;-78
2024/03/14 16:46:38;;;;;;;1.63;1.30;;;;;;;;;;10236058;28;20051;-78
2024/03/14 16:51:42;;;;;;;2.50;1.10;;;;;;;;;;10237636;28;20128;-76
2024/03/14 16:56:46;;;;;;;2.10;1.35;;;;;;;;;;10233143;28;20518;-77
2024/03/14 17:01:51;;;;;;;1.30;1.00;;;;;;;;;;10231557;28;20405;-76
2024/03/14 17:06:56;;;;;;;3.08;1.27;;;;;;;;;;10232069;28;20067;-76
2024/03/14 17:12:01;;;;;;;;;;;;;;;;;;10229799;28;20054;-77
2024/03/14 17:17:04;;;;;;;2.63;1.42;;;;;;;;;;10247470;28;20679;-77
2024/03/14 17:22:16;;;;;;;5.22;1.73;;;;;;;;;;10229380;28;20047;-77
2024/03/14 17:27:20;;;;;;;2.85;1.30;;;;;;;;;;10229846;28;20455;-77
2024/03/14 17:32:23;;;;;;;4.85;1.52;;;;;;;;;;10231252;28;20538;-77
2024/03/14 17:37:27;;;;;;;2.80;1.35;;;;;;;;;;10228948;28;20444;-77
2024/03/14 17:42:32;;;;;;;2.33;1.20;;;;;;;;;;10230772;28;20472;-76
2024/03/14 17:47:35;;;;;;;3.83;1.60;;;;;;;;;;10229513;28;20520;-76
2024/03/14 17:52:39;;;;;;;5.15;1.38;;;;;;;;;;10237362;28;20051;-76
2024/03/14 17:57:45;;;;;;;2.80;1.55;;;;;;;;;;10219185;28;20416;-77
2024/03/14 18:02:50;;;;;;;2.25;1.30;;;;;;;;;;10231972;28;20047;-77
2024/03/14 18:08:01;;;;;;;2.25;1.50;;;;;;;;;;10237224;28;21002;-79
2024/03/14 18:13:08;;;;;;;5.97;1.73;;;;;;;;;;10220814;28;20591;-77
2024/03/14 18:18:13;;;;;;;3.35;1.55;;;;;;;;;;10239944;28;20639;-75
2024/03/14 18:23:16;;;;;;;2.73;1.60;;;;;;;;;;10234034;28;20121;-75
2024/03/14 18:28:20;;;;;;;2.90;1.70;;;;;;;;;;10217396;28;20046;-76
2024/03/14 18:38:42;;;;;;;6.45;2.45;;;;;;;;;;10253462;28;20597;-76
2024/03/14 18:43:44;;;;;;;4.70;2.17;;;;;;;;;;10253449;28;20051;-76
2024/03/14 18:48:49;;;;;;;;;;;;;;;;;;10252021;28;20043;-76
2024/03/14 18:53:52;;;;;;;;;;;;;;;;;;10270154;28;19926;-76
2024/03/14 18:58:57;;;;;;;5.90;2.05;;;;;;;;;;10270212;28;19949;-76
2024/03/14 19:04:02;;;;;;;6.85;2.75;;;;;;;;;;10264923;28;20042;-76
2024/03/14 19:09:10;;;;;;;7.95;3.05;;;;;;;;;;10245110;28;20057;-76
2024/03/14 19:14:19;;;;;;;7.63;3.33;;;;;;;;;;10263010;28;20194;-77
2024/03/14 19:19:22;;;;;;;5.35;2.45;;;;;;;;;;10263888;28;20125;-76
2024/03/14 19:24:25;;;;;;;6.32;3.08;;;;;;;;;;10247783;28;20058;-76
2024/03/14 19:29:29;;;;;;;7.93;3.07;;;;;;;;;;10253171;28;20045;-76
2024/03/14 19:34:33;;;;;;;;;;;;;;;;;;10235828;28;20081;-76
2024/03/14 19:39:37;;;;;;;5.07;2.33;;;;;;;;;;10268112;28;19989;-76
2024/03/14 19:44:41;;;;;;;8.57;3.05;;;;;;;;;;10253899;28;20046;-76
2024/03/14 19:49:44;;;;;;;7.63;3.38;;;;;;;;;;10241803;28;20478;-76
2024/03/14 19:54:49;;;;;;;5.47;1.77;;;;;;;;;;10236265;28;20051;-76
2024/03/14 19:59:52;;;;;;;5.05;2.40;;;;;;;;;;10238465;28;20074;-76
2024/03/14 20:04:56;;;;;;;7.10;2.50;;;;;;;;;;10250029;28;20047;-76
2024/03/14 20:10:01;;;;;;;7.05;2.72;;;;;;;;;;10230269;28;20030;-76
2024/03/14 20:15:04;;;;;;;3.72;1.55;;;;;;;;;;10227692;28;20065;-77
2024/03/14 20:20:10;;;;;;;7.68;3.20;;;;;;;;;;10234080;28;20133;-77
2024/03/14 20:25:16;;;;;;;3.35;1.80;;;;;;;;;;10221936;28;20047;-78
2024/03/14 20:30:19;;;;;;;5.15;2.33;;;;;;;;;;10239135;28;20566;-76
2024/03/14 20:35:23;;;;;;;10.43;4.35;;;;;;;;;;10229935;28;20125;-76
2024/03/14 20:40:26;;;;;;;;;;;;;;;;;;10224993;28;20527;-77
2024/03/14 20:45:41;;;;;;;7.55;3.42;;;;;;;;;;10240828;28;19930;-77
2024/03/14 20:50:45;;;;;;;7.00;3.38;;;;;;;;;;10229543;28;20065;-76
2024/03/14 20:55:49;;;;;;;5.28;2.80;;;;;;;;;;10231513;28;20134;-77
2024/03/14 21:01:02;;;;;;;6.80;3.20;;;;;;;;;;10225090;28;20054;-77
2024/03/14 21:06:07;;;;;;;7.57;3.90;;;;;;;;;;10221877;28;20198;-77
2024/03/14 21:11:12;;;;;;;1.75;0.90;;;;;;;;;;10225662;28;20046;-77
2024/03/14 21:16:19;;;;;;;4.53;2.40;;;;;;;;;;10231624;28;20456;-78
2024/03/14 21:21:23;;;;;;;5.07;2.47;;;;;;;;;;10230648;28;20169;-77
2024/03/14 21:26:27;;;;;;;4.55;2.50;;;;;;;;;;10234351;28;20424;-77
2024/03/14 21:31:33;;;;;;;5.10;2.28;;;;;;;;;;10226772;28;20054;-76
2024/03/14 21:36:39;;;;;;;4.82;2.13;;;;;;;;;;10227046;28;20151;-77
2024/03/14 21:41:44;;;;;;;3.47;2.05;;;;;;;;;;10241060;28;20176;-78
2024/03/14 21:46:48;;;;;;;4.60;1.90;;;;;;;;;;10233895;28;20055;-76
2024/03/14 21:51:52;;;;;;;5.05;2.00;;;;;;;;;;10235499;28;20126;-76
2024/03/14 21:56:55;;;;;;;;;;;;;;;;;;10229428;28;20051;-74
2024/03/14 22:02:02;;;;;;;5.70;2.20;;;;;;;;;;10245068;28;20406;-75
2024/03/14 22:07:08;;;;;;;3.03;1.70;;;;;;;;;;10231227;28;20047;-77
2024/03/14 22:12:16;;;;;;;3.67;1.52;;;;;;;;;;10236137;28;20043;-76
2024/03/14 22:17:20;;;;;;;1.90;1.20;;;;;;;;;;10255236;28;20502;-77
2024/03/14 22:22:23;;;;;;;0.88;0.52;;;;;;;;;;10249113;28;20047;-76
2024/03/14 22:27:28;;;;;;;4.07;1.88;;;;;;;;;;10239357;28;20059;-77
2024/03/14 22:32:31;;;;;;;3.45;1.60;;;;;;;;;;10238951;28;20157;-75
2024/03/14 22:37:35;;;;;;;3.10;1.30;;;;;;;;;;10261335;28;20105;-76
2024/03/14 22:42:39;;;;;;;;;;;;;;;;;;10249023;28;20039;-76
2024/03/14 22:47:42;;;;;;;;;;;;;;;;;;10266006;28;19937;-76
2024/03/14 22:52:45;;;;;;;2.55;1.40;;;;;;;;;;10249697;28;19923;-76
2024/03/14 22:57:52;;;;;;;3.20;1.42;;;;;;;;;;10251789;28;20066;-77
2024/03/14 23:02:56;;;;;;;2.83;1.48;;;;;;;;;;10251833;28;20039;-74
2024/03/14 23:08:01;;;;;;;2.15;1.40;;;;;;;;;;10250051;28;20098;-76
2024/03/14 23:13:11;;;;;;;3.67;1.98;;;;;;;;;;10249800;28;20027;-75
2024/03/14 23:18:15;;;;;;;3.88;1.33;;;;;;;;;;10246384;28;20121;-76
2024/03/14 23:23:20;;;;;;;3.08;1.50;;;;;;;;;;10252175;28;20062;-76
2024/03/14 23:28:24;;;;;;;1.40;1.30;;;;;;;;;;10248664;28;20048;-78
2024/03/14 23:33:28;;;;;;;3.03;0.90;;;;;;;;;;10242650;28;20515;-77
2024/03/14 23:38:32;;;;;;;3.97;1.00;;;;;;;;;;10237710;28;20066;-77
2024/03/14 23:43:34;;;;;;;4.97;1.50;;;;;;;;;;10236109;28;20461;-76
2024/03/14 23:48:37;;;;;;;0.45;0.20;;;;;;;;;;10234947;28;20118;-76
2024/03/14 23:53:41;;;;;;;3.30;1.40;;;;;;;;;;10242430;28;20102;-76
2024/03/14 23:58:45;;;;;;;2.53;1.20;;;;;;;;;;10236453;28;20428;-75
